createdAt,value
2022-12-08T00:01:12.147Z,60.64
2022-12-08T00:04:14.307Z,61.78
2022-12-08T00:07:34.961Z,58.94
2022-12-08T00:10:52.037Z,59.51
2022-12-08T00:13:53.999Z,60.92
2022-12-08T00:16:56.421Z,58.83
2022-12-08T00:19:58.568Z,58.75
2022-12-08T00:23:00.373Z,57.87
2022-12-08T00:26:03.414Z,59.77
2022-12-08T00:29:05.401Z,58.33
2022-12-08T00:32:07.439Z,59.00
2022-12-08T00:35:09.482Z,59.40
2022-12-08T00:38:11.293Z,57.70
2022-12-08T00:41:14.971Z,58.50
2022-12-08T00:44:18.834Z,59.72
2022-12-08T00:47:24.650Z,57.71
2022-12-08T00:50:26.901Z,59.76
2022-12-08T00:53:28.833Z,60.14
2022-12-08T00:56:30.761Z,58.38
2022-12-08T00:59:32.612Z,57.30
2022-12-08T01:02:34.790Z,59.04
2022-12-08T01:05:36.629Z,61.19
2022-12-08T01:08:38.917Z,59.47
2022-12-08T01:11:40.817Z,59.53
2022-12-08T01:14:42.700Z,62.68
2022-12-08T01:17:44.502Z,61.08
2022-12-08T01:20:46.689Z,63.29
2022-12-08T01:23:48.563Z,63.22
2022-12-08T01:26:50.673Z,58.63
2022-12-08T01:29:52.510Z,58.98
2022-12-08T01:32:54.572Z,59.43
2022-12-08T01:35:56.517Z,59.23
2022-12-08T01:38:59.285Z,59.94
2022-12-08T01:42:01.136Z,63.51
2022-12-08T01:45:04.487Z,60.62
2022-12-08T01:48:07.318Z,60.12
2022-12-08T01:51:09.287Z,59.24
2022-12-08T01:54:11.398Z,58.78
2022-12-08T01:57:15.279Z,59.87
2022-12-08T02:00:17.900Z,60.54
2022-12-08T02:03:34.719Z,59.77
2022-12-08T02:06:38.539Z,61.63
2022-12-08T02:09:40.505Z,60.36
2022-12-08T02:12:42.360Z,63.26
2022-12-08T02:15:47.251Z,65.02
2022-12-08T02:19:29.642Z,64.23
2022-12-08T02:22:44.646Z,65.43
2022-12-08T02:25:46.671Z,66.92
2022-12-08T02:29:07.416Z,65.87
2022-12-08T02:32:44.876Z,65.97
2022-12-08T02:35:53.122Z,65.48
2022-12-08T02:39:04.161Z,69.30
2022-12-08T02:42:13.977Z,63.82
2022-12-08T02:45:22.124Z,65.33
2022-12-08T02:48:23.958Z,62.31
2022-12-08T02:51:25.995Z,62.80
2022-12-08T02:54:27.928Z,64.82
2022-12-08T02:57:48.733Z,65.00
2022-12-08T03:00:58.357Z,66.05
2022-12-08T03:04:04.027Z,67.74
2022-12-08T03:07:13.256Z,64.94
2022-12-08T03:10:18.169Z,65.87
2022-12-08T03:13:21.608Z,67.60
2022-12-08T03:16:24.975Z,65.55
2022-12-08T03:19:27.788Z,66.33
2022-12-08T03:22:29.759Z,67.89
2022-12-08T03:25:32.246Z,66.32
2022-12-08T03:28:34.207Z,64.98
2022-12-08T03:31:37.632Z,66.03
2022-12-08T03:34:39.854Z,64.42
2022-12-08T03:37:41.855Z,65.42
2022-12-08T03:40:44.274Z,67.66
2022-12-08T03:43:53.268Z,65.94
2022-12-08T03:46:55.131Z,65.49
2022-12-08T03:49:56.949Z,67.66
2022-12-08T03:52:58.766Z,67.14
2022-12-08T03:56:00.793Z,65.71
2022-12-08T03:59:03.191Z,66.86
2022-12-08T04:02:05.222Z,66.77
2022-12-08T04:05:07.248Z,64.67
2022-12-08T04:08:09.231Z,66.03
2022-12-08T04:11:11.275Z,64.49
2022-12-08T04:14:13.188Z,65.78
2022-12-08T04:17:15.073Z,66.52
2022-12-08T04:20:16.956Z,65.73
2022-12-08T04:23:18.828Z,63.79
2022-12-08T04:26:20.723Z,65.65
2022-12-08T04:29:22.614Z,64.38
2022-12-08T04:32:24.469Z,65.07
2022-12-08T04:35:26.311Z,65.95
2022-12-08T04:38:28.630Z,66.61
2022-12-08T04:41:30.646Z,68.05
2022-12-08T04:44:32.512Z,67.93
2022-12-08T04:47:34.610Z,67.51
2022-12-08T04:50:36.469Z,67.31
2022-12-08T04:53:43.413Z,67.63
2022-12-08T04:56:48.077Z,66.54
2022-12-08T04:59:49.932Z,68.12
2022-12-08T05:02:51.875Z,64.97
2022-12-08T05:05:53.771Z,66.93
2022-12-08T05:08:55.651Z,64.37
2022-12-08T05:11:57.655Z,63.89
2022-12-08T05:14:59.546Z,65.20
2022-12-08T05:18:01.372Z,66.02
2022-12-08T05:21:03.369Z,67.63
2022-12-08T05:24:05.535Z,64.90
2022-12-08T05:27:07.444Z,64.54
2022-12-08T05:30:09.384Z,67.22
2022-12-08T05:33:11.343Z,66.51
2022-12-08T05:36:14.108Z,67.38
2022-12-08T05:39:15.903Z,68.07
2022-12-08T05:42:23.180Z,65.34
2022-12-08T05:45:26.666Z,64.57
2022-12-08T05:48:28.595Z,65.16
2022-12-08T05:51:30.429Z,68.46
2022-12-08T05:54:32.375Z,69.12
2022-12-08T05:57:34.365Z,68.45
2022-12-08T06:00:36.252Z,68.40
2022-12-08T06:03:38.221Z,65.92
2022-12-08T06:06:42.795Z,65.59
2022-12-08T06:09:44.767Z,64.50
2022-12-08T06:12:46.599Z,63.31
2022-12-08T06:15:48.568Z,64.16
2022-12-08T06:18:50.559Z,63.91
2022-12-08T06:21:52.540Z,66.93
2022-12-08T06:24:54.597Z,65.92
2022-12-08T06:27:56.428Z,66.69
2022-12-08T06:30:58.714Z,66.97
2022-12-08T06:34:00.673Z,66.21
2022-12-08T06:37:02.549Z,66.25
2022-12-08T06:40:05.025Z,67.46
2022-12-08T06:43:07.350Z,68.33
2022-12-08T06:46:10.858Z,67.36
2022-12-08T06:49:12.993Z,67.79
2022-12-08T06:52:15.357Z,66.36
2022-12-08T06:55:42.728Z,65.72
2022-12-08T06:58:39.592Z,65.37
2022-12-08T07:01:41.621Z,65.00
2022-12-08T07:04:43.853Z,66.03
2022-12-08T07:07:45.811Z,66.64
2022-12-08T07:10:47.742Z,66.69
2022-12-08T07:13:50.722Z,65.67
2022-12-08T07:16:52.804Z,62.52
2022-12-08T07:19:54.695Z,60.61
2022-12-08T07:22:56.677Z,64.85
2022-12-08T07:26:02.892Z,66.47
2022-12-08T07:29:05.150Z,65.64
2022-12-08T07:32:07.875Z,61.76
2022-12-08T07:35:09.976Z,62.16
2022-12-08T07:38:12.294Z,64.13
2022-12-08T07:41:15.094Z,66.64
2022-12-08T07:44:17.039Z,66.51
2022-12-08T07:47:18.867Z,67.56
2022-12-08T07:50:20.709Z,67.87
2022-12-08T07:53:22.678Z,67.21
2022-12-08T07:56:24.565Z,67.06
2022-12-08T07:59:26.934Z,64.71
2022-12-08T08:02:29.048Z,65.09
2022-12-08T08:05:30.978Z,66.73
2022-12-08T08:08:33.124Z,67.50
2022-12-08T08:11:35.319Z,64.13
2022-12-08T08:14:37.532Z,64.63
2022-12-08T08:17:39.466Z,63.75
2022-12-08T08:20:41.467Z,64.40
2022-12-08T08:23:43.469Z,60.79
2022-12-08T08:26:45.634Z,58.86
2022-12-08T08:29:47.510Z,56.97
2022-12-08T08:32:49.512Z,58.62
2022-12-08T08:35:51.517Z,60.52
2022-12-08T08:38:53.515Z,60.47
2022-12-08T08:41:55.448Z,62.13
2022-12-08T08:44:57.413Z,60.57
2022-12-08T08:47:59.991Z,59.54
2022-12-08T08:51:12.165Z,59.20
2022-12-08T08:54:14.417Z,62.63
2022-12-08T08:57:18.468Z,60.78
2022-12-08T09:00:24.210Z,60.20
2022-12-08T09:03:26.298Z,61.52
2022-12-08T09:06:28.713Z,60.10
2022-12-08T09:09:31.979Z,61.51
2022-12-08T09:12:34.189Z,58.85
2022-12-08T09:15:36.378Z,54.83
2022-12-08T09:18:38.806Z,54.12
2022-12-08T09:21:41.505Z,60.76
2022-12-08T09:24:43.735Z,60.69
2022-12-08T09:27:45.795Z,60.13
2022-12-08T09:30:48.208Z,61.83
2022-12-08T09:33:53.191Z,57.05
2022-12-08T09:36:55.220Z,58.95
2022-12-08T09:39:57.207Z,56.02
2022-12-08T09:43:03.655Z,56.90
2022-12-08T09:46:06.261Z,60.26
2022-12-08T09:49:11.849Z,60.20
2022-12-08T09:52:16.317Z,57.90
2022-12-08T09:55:23.391Z,56.09
2022-12-08T09:58:28.392Z,60.55
2022-12-08T10:01:31.519Z,60.04
2022-12-08T10:04:36.985Z,61.51
2022-12-08T10:07:44.380Z,61.02
2022-12-08T10:10:59.378Z,59.66
2022-12-08T10:14:22.823Z,60.91
2022-12-08T10:17:28.016Z,58.41
2022-12-08T10:20:36.232Z,56.04
2022-12-08T10:23:38.939Z,54.23
2022-12-08T10:26:40.939Z,55.54
2022-12-08T10:29:42.994Z,61.75
2022-12-08T10:32:46.150Z,60.56
2022-12-08T10:35:48.011Z,58.41
2022-12-08T10:38:49.880Z,58.41
2022-12-08T10:41:51.802Z,57.73
2022-12-08T10:44:53.827Z,58.57
2022-12-08T10:48:00.180Z,58.28
2022-12-08T10:51:05.261Z,54.99
2022-12-08T10:54:26.289Z,58.49
2022-12-08T10:57:28.239Z,56.03
2022-12-08T11:00:30.413Z,57.77
2022-12-08T11:03:36.454Z,55.67
2022-12-08T11:06:38.939Z,58.72
2022-12-08T11:09:40.874Z,60.04
2022-12-08T11:12:43.802Z,59.54
2022-12-08T11:15:45.795Z,56.41
2022-12-08T11:18:49.921Z,50.61
2022-12-08T11:21:51.752Z,52.63
2022-12-08T11:25:12.933Z,51.25
2022-12-08T11:28:14.769Z,49.31
2022-12-08T11:31:37.053Z,48.31
2022-12-08T11:34:41.620Z,49.56
2022-12-08T11:37:43.591Z,50.04
2022-12-08T11:40:45.572Z,54.28
2022-12-08T11:43:53.050Z,51.01
2022-12-08T11:46:57.154Z,53.60
2022-12-08T11:50:18.258Z,53.63
2022-12-08T11:53:51.098Z,53.50
2022-12-08T11:56:56.545Z,52.40
2022-12-08T11:59:58.403Z,52.11
2022-12-08T12:03:03.832Z,51.24
2022-12-08T12:06:46.499Z,53.48
2022-12-08T12:10:02.212Z,52.15
2022-12-08T12:13:19.304Z,53.70
2022-12-08T12:16:39.854Z,49.88
2022-12-08T12:19:41.824Z,52.08
2022-12-08T12:22:44.247Z,50.23
2022-12-08T12:25:46.567Z,50.05
2022-12-08T12:28:54.997Z,49.63
2022-12-08T12:31:59.377Z,51.88
2022-12-08T12:35:03.499Z,50.52
2022-12-08T12:38:27.080Z,49.89
2022-12-08T12:41:44.004Z,50.53
2022-12-08T12:44:46.294Z,49.82
2022-12-08T12:47:55.594Z,49.18
2022-12-08T12:50:58.220Z,48.61
2022-12-08T12:54:22.795Z,48.01
2022-12-08T12:57:25.778Z,49.83
2022-12-08T13:00:27.974Z,49.59
2022-12-08T13:03:30.020Z,47.43
2022-12-08T13:06:44.723Z,51.73
2022-12-08T13:09:46.680Z,51.38
2022-12-08T13:13:01.886Z,48.33
2022-12-08T13:16:18.436Z,49.62
2022-12-08T13:19:21.027Z,50.97
2022-12-08T13:22:41.839Z,54.26
2022-12-08T13:25:43.692Z,51.67
2022-12-08T13:29:04.306Z,52.59
2022-12-08T13:32:12.423Z,50.36
2022-12-08T13:35:14.280Z,51.09
2022-12-08T13:38:17.090Z,51.12
2022-12-08T13:41:20.870Z,50.30
2022-12-08T13:58:17.511Z,53.53
2022-12-08T14:01:20.417Z,56.07
2022-12-08T14:04:42.558Z,54.11
2022-12-08T14:07:44.558Z,56.01
2022-12-08T14:10:47.454Z,54.44
2022-12-08T14:13:49.659Z,53.16
2022-12-08T14:16:55.880Z,55.29
2022-12-08T14:20:13.388Z,55.15
2022-12-08T14:23:19.413Z,53.59
2022-12-08T14:26:21.441Z,54.04
2022-12-08T14:29:46.687Z,55.12
2022-12-08T14:32:55.190Z,53.25
2022-12-08T14:35:57.459Z,51.93
2022-12-08T14:38:59.474Z,54.04
2022-12-08T14:42:01.849Z,54.96
2022-12-08T14:45:06.328Z,54.42
2022-12-08T14:48:26.603Z,54.28
2022-12-08T14:51:31.737Z,55.31
2022-12-08T14:54:33.836Z,54.60
2022-12-08T14:57:38.521Z,54.05
2022-12-08T15:00:44.592Z,53.45
2022-12-08T15:03:50.907Z,53.10
2022-12-08T15:06:54.403Z,57.14
2022-12-08T15:10:14.883Z,54.88
2022-12-08T15:13:16.933Z,57.46
2022-12-08T15:16:42.476Z,54.78
2022-12-08T15:19:44.590Z,57.13
2022-12-08T15:22:46.636Z,56.69
2022-12-08T15:25:48.807Z,57.35
2022-12-08T15:28:50.755Z,55.49
2022-12-08T15:31:54.314Z,55.61
2022-12-08T15:34:56.257Z,55.17
2022-12-08T15:37:58.089Z,56.85
2022-12-08T15:40:59.953Z,55.94
2022-12-08T15:44:01.847Z,54.40
2022-12-08T15:47:03.851Z,55.39
2022-12-08T15:50:07.659Z,52.28
2022-12-08T15:53:12.732Z,52.70
2022-12-08T15:56:30.372Z,51.86
2022-12-08T15:59:32.625Z,53.43
2022-12-08T16:03:05.005Z,56.61
2022-12-08T16:06:38.882Z,56.30
2022-12-08T16:09:21.107Z,56.24
2022-12-08T16:16:05.676Z,57.93
2022-12-08T16:19:09.718Z,58.45
2022-12-08T16:26:16.189Z,53.00
2022-12-08T16:29:04.394Z,54.12
2022-12-08T16:32:06.955Z,54.39
2022-12-08T16:35:08.995Z,56.45
2022-12-08T16:38:13.379Z,59.36
2022-12-08T16:41:34.880Z,58.72
2022-12-08T16:44:38.077Z,57.19
2022-12-08T16:47:44.458Z,56.73
2022-12-08T16:50:46.940Z,59.10
2022-12-08T16:53:48.776Z,57.02
2022-12-08T16:56:50.854Z,57.28
2022-12-08T16:59:52.792Z,62.61
2022-12-08T17:02:55.195Z,60.44
2022-12-08T17:05:57.049Z,60.45
2022-12-08T17:08:59.585Z,61.61
2022-12-08T17:12:04.104Z,62.07
2022-12-08T17:15:08.063Z,62.99
2022-12-08T17:18:10.141Z,60.36
2022-12-08T17:21:13.940Z,62.21
2022-12-08T17:24:20.249Z,61.56
2022-12-08T17:27:23.910Z,60.93
2022-12-08T17:30:25.772Z,60.42
2022-12-08T17:33:27.689Z,60.54
2022-12-08T17:36:29.653Z,58.17
2022-12-08T17:39:31.534Z,58.75
2022-12-08T17:42:33.921Z,59.59
2022-12-08T17:45:35.846Z,60.94
2022-12-08T17:48:38.013Z,61.23
2022-12-08T17:51:39.952Z,61.38
2022-12-08T17:54:41.780Z,59.40
2022-12-08T17:57:43.681Z,57.80
2022-12-08T18:00:45.916Z,59.61
2022-12-08T18:03:47.936Z,57.13
2022-12-08T18:06:49.758Z,56.18
2022-12-08T18:09:51.764Z,59.42
2022-12-08T18:12:53.624Z,58.13
2022-12-08T18:15:55.596Z,59.26
2022-12-08T18:18:57.810Z,62.04
2022-12-08T18:21:59.939Z,60.65
2022-12-08T18:25:02.268Z,60.57
2022-12-08T18:28:04.530Z,58.96
2022-12-08T18:31:10.452Z,61.11
2022-12-08T18:34:12.564Z,59.49
2022-12-08T18:37:14.476Z,57.15
2022-12-08T18:40:16.553Z,56.12
2022-12-08T18:43:18.477Z,55.81
2022-12-08T18:46:20.352Z,56.57
2022-12-08T18:49:22.302Z,58.90
2022-12-08T18:52:29.601Z,57.74
2022-12-08T18:55:33.589Z,59.23
2022-12-08T18:58:35.641Z,57.29
2022-12-08T19:01:38.941Z,54.15
2022-12-08T19:04:42.170Z,57.22
2022-12-08T19:07:45.825Z,59.13
2022-12-08T19:10:47.808Z,54.86
2022-12-08T19:13:50.003Z,56.27
2022-12-08T19:16:52.343Z,55.05
2022-12-08T19:19:54.264Z,55.89
2022-12-08T19:22:56.071Z,57.75
2022-12-08T19:25:57.917Z,58.57
2022-12-08T19:28:59.912Z,55.33
2022-12-08T19:32:01.832Z,56.70
2022-12-08T19:35:07.587Z,56.09
2022-12-08T19:38:09.549Z,57.82
2022-12-08T19:41:36.164Z,60.35
2022-12-08T19:44:53.044Z,59.63
2022-12-08T19:47:55.120Z,59.46
2022-12-08T19:50:57.193Z,60.70
2022-12-08T19:53:59.129Z,57.66
2022-12-08T19:57:01.033Z,56.27
2022-12-08T20:00:03.346Z,59.55
2022-12-08T20:03:05.351Z,57.98
2022-12-08T20:06:07.399Z,58.46
2022-12-08T20:09:10.490Z,58.08
2022-12-08T20:12:12.597Z,58.84
2022-12-08T20:15:14.964Z,58.42
2022-12-08T20:18:16.853Z,58.60
2022-12-08T20:21:19.538Z,58.13
2022-12-08T20:24:21.825Z,58.23
2022-12-08T20:27:23.944Z,56.69
2022-12-08T20:30:25.808Z,60.09
2022-12-08T20:33:27.810Z,60.93
2022-12-08T20:36:30.030Z,58.60
2022-12-08T20:39:31.970Z,57.44
2022-12-08T20:42:33.908Z,61.50
2022-12-08T20:45:36.180Z,58.16
2022-12-08T20:48:38.667Z,56.75
2022-12-08T20:51:41.548Z,59.84
2022-12-08T20:54:43.437Z,61.12
2022-12-08T20:57:45.304Z,60.83
2022-12-08T21:00:47.469Z,60.47
2022-12-08T21:03:50.342Z,61.46
2022-12-08T21:06:52.519Z,60.59
2022-12-08T21:09:54.789Z,58.81
2022-12-08T21:12:56.714Z,59.35
2022-12-08T21:15:58.619Z,57.50
2022-12-08T21:19:00.711Z,57.80
2022-12-08T21:22:02.777Z,58.37
2022-12-08T21:25:04.790Z,58.87
2022-12-08T21:28:06.783Z,59.27
2022-12-08T21:31:09.445Z,58.63
2022-12-08T21:34:11.500Z,61.55
2022-12-08T21:37:13.639Z,62.31
2022-12-08T21:40:15.680Z,64.72
2022-12-08T21:43:17.528Z,64.46
2022-12-08T21:46:21.279Z,64.94
2022-12-08T21:49:23.589Z,63.06
2022-12-08T21:52:26.008Z,62.45
2022-12-08T21:55:28.076Z,62.16
2022-12-08T21:58:32.756Z,63.30
2022-12-08T22:01:35.032Z,64.53
2022-12-08T22:04:37.231Z,61.96
2022-12-08T22:07:39.909Z,60.12
2022-12-08T22:10:46.626Z,61.86
2022-12-08T22:13:48.649Z,61.89
2022-12-08T22:16:50.709Z,60.15
2022-12-08T22:19:52.620Z,58.29
2022-12-08T22:22:54.536Z,59.11
2022-12-08T22:25:59.659Z,59.46
2022-12-08T22:29:01.695Z,59.83
2022-12-08T22:32:03.960Z,61.64
2022-12-08T22:35:06.044Z,59.31
2022-12-08T22:38:07.857Z,61.04
2022-12-08T22:41:09.825Z,61.26
2022-12-08T22:44:12.295Z,62.10
2022-12-08T22:47:14.248Z,59.37
2022-12-08T22:50:16.150Z,57.64
2022-12-08T22:53:17.985Z,60.49
2022-12-08T22:56:19.866Z,60.60
2022-12-08T22:59:21.934Z,60.69
2022-12-08T23:02:23.806Z,59.70
2022-12-08T23:05:25.759Z,60.76
2022-12-08T23:08:28.350Z,60.68
2022-12-08T23:11:30.734Z,57.78
2022-12-08T23:14:32.557Z,61.51
2022-12-08T23:17:34.807Z,61.13
2022-12-08T23:20:36.811Z,61.84
2022-12-08T23:23:38.698Z,61.35
2022-12-08T23:26:40.643Z,59.46
2022-12-08T23:29:42.521Z,58.59
2022-12-08T23:32:44.585Z,60.13
2022-12-08T23:35:54.624Z,58.86
2022-12-08T23:38:56.556Z,58.30
2022-12-08T23:41:58.400Z,59.51
2022-12-08T23:45:00.382Z,58.77
2022-12-08T23:48:02.329Z,59.59
2022-12-08T23:51:04.124Z,58.82
2022-12-08T23:54:06.604Z,59.79
2022-12-08T23:57:08.779Z,59.45
